Carsten Maersk — OZYB2 — position and weather

sailwx.info

Track history (hours):
 
Tides and Currents Weather Stations Pressure Air Temp Water Temp Dewpoint Dewpoint Depression Visibility Wind Speed Wind Dir Waves Ship Positions

Carsten Maersk

Last reported at 2018-Feb-21 17:14 UTC. Time now 2018-Feb-21 19:41 UTC.
Position N 34°29' E 139°09'.

Type: Ship (hazmat cat A). MMSI: 219909000.

Date/timePositionNaut miles runAvg speedWind from/ knotsBaromVisibWave heightAir tempDewpointWater temp
2018-Feb-21 17:14N 34°29' E 139°09'516.9
2018-Feb-21 16:55N 34°25' E 139°05'  
2018-Feb-13 01:28N 22°43' E 119°58'1020.8
2018-Feb-13 01:00N 22°35' E 120°04'1019.4
2018-Feb-13 00:31N 22°33' E 120°14'5 9.9
2018-Feb-13 00:00N 22°33' E 120°19'0 0.5
2018-Feb-12 23:30N 22°33' E 120°20'0 0.0
2018-Feb-12 22:59N 22°33' E 120°20'0 0.0
2018-Feb-12 22:29N 22°33' E 120°20'0 0.0
2018-Feb-12 21:59N 22°33' E 120°20'0 0.0
2018-Feb-12 21:29N 22°33' E 120°20'0 0.0
2018-Feb-12 20:59N 22°33' E 120°20'0 0.1
2018-Feb-12 20:29N 22°33' E 120°20'0 0.0
2018-Feb-12 19:59N 22°33' E 120°20'0 0.1
2018-Feb-12 19:29N 22°33' E 120°20'0 0.0
2018-Feb-12 18:56N 22°33' E 120°20'0 0.0
2018-Feb-12 18:31N 22°33' E 120°20'1 2.7
2018-Feb-12 18:00N 22°33' E 120°18'2 4.7
2018-Feb-12 17:31N 22°32' E 120°16'3 6.7
2018-Feb-12 17:00N 22°31' E 120°12'4 7.3
2018-Feb-12 16:30N 22°30' E 120°09'916.9
2018-Feb-12 15:57N 22°29' E 119°58'  
Track history (hours):
 
Tides and Currents Weather Stations Pressure Air Temp Water Temp Dewpoint Dewpoint Depression Visibility Wind Speed Wind Dir Waves Ship Positions

Carsten Maersk

Last reported at 2018-Feb-21 17:14 UTC. Time now 2018-Feb-21 19:41 UTC.
Position N 34°29' E 139°09'.

Type: Ship (hazmat cat A). MMSI: 219909000.

Date/timePositionNaut miles runAvg speedWind from/ knotsBaromVisibWave heightAir tempDewpointWater temp
2018-Feb-21 17:14N 34°29' E 139°09'516.9
2018-Feb-21 16:55N 34°25' E 139°05'  
2018-Feb-13 01:28N 22°43' E 119°58'1020.8
2018-Feb-13 01:00N 22°35' E 120°04'1019.4
2018-Feb-13 00:31N 22°33' E 120°14'5 9.9
2018-Feb-13 00:00N 22°33' E 120°19'0 0.5
2018-Feb-12 23:30N 22°33' E 120°20'0 0.0
2018-Feb-12 22:59N 22°33' E 120°20'0 0.0
2018-Feb-12 22:29N 22°33' E 120°20'0 0.0
2018-Feb-12 21:59N 22°33' E 120°20'0 0.0
2018-Feb-12 21:29N 22°33' E 120°20'0 0.0
2018-Feb-12 20:59N 22°33' E 120°20'0 0.1
2018-Feb-12 20:29N 22°33' E 120°20'0 0.0
2018-Feb-12 19:59N 22°33' E 120°20'0 0.1
2018-Feb-12 19:29N 22°33' E 120°20'0 0.0
2018-Feb-12 18:56N 22°33' E 120°20'0 0.0
2018-Feb-12 18:31N 22°33' E 120°20'1 2.7
2018-Feb-12 18:00N 22°33' E 120°18'2 4.7
2018-Feb-12 17:31N 22°32' E 120°16'3 6.7
2018-Feb-12 17:00N 22°31' E 120°12'4 7.3
2018-Feb-12 16:30N 22°30' E 120°09'916.9
2018-Feb-12 15:57N 22°29' E 119°58'  

Dump ship's entire track history